createdAt,value
2023-03-31T00:00:48.091Z,94679.00
2023-03-31T00:01:48.119Z,94676.00
2023-03-31T00:02:48.485Z,94676.00
2023-03-31T00:03:48.375Z,94674.00
2023-03-31T00:04:48.179Z,94676.00
2023-03-31T00:05:48.189Z,94674.00
2023-03-31T00:06:48.218Z,94670.00
2023-03-31T00:07:48.232Z,94666.00
2023-03-31T00:08:48.268Z,94668.00
2023-03-31T00:09:48.290Z,94664.00
2023-03-31T00:10:48.302Z,94662.00
2023-03-31T00:11:48.295Z,94660.00
2023-03-31T00:12:48.332Z,94658.00
2023-03-31T00:13:48.356Z,94656.00
2023-03-31T00:14:48.340Z,94654.00
2023-03-31T00:15:48.382Z,94652.00
2023-03-31T00:16:48.426Z,94650.00
2023-03-31T00:17:48.463Z,94648.00
2023-03-31T00:18:48.499Z,94652.00
2023-03-31T00:19:48.520Z,94648.00
2023-03-31T00:20:48.493Z,94648.00
2023-03-31T00:21:48.615Z,94644.00
2023-03-31T00:22:48.545Z,94646.00
2023-03-31T00:23:48.587Z,94646.00
2023-03-31T00:24:48.586Z,94644.00
2023-03-31T00:25:48.589Z,94648.00
2023-03-31T00:26:48.649Z,94646.00
2023-03-31T00:27:48.664Z,94644.00
2023-03-31T00:28:48.703Z,94642.00
2023-03-31T00:29:48.780Z,94631.00
2023-03-31T00:30:48.785Z,94627.00
2023-03-31T00:31:48.823Z,94623.00
2023-03-31T00:32:48.852Z,94621.00
2023-03-31T00:33:48.850Z,94621.00
2023-03-31T00:34:48.857Z,94621.00
2023-03-31T00:35:48.925Z,94619.00
2023-03-31T00:36:48.949Z,94617.00
2023-03-31T00:37:49.008Z,94617.00
2023-03-31T00:38:48.985Z,94617.00
2023-03-31T00:39:48.992Z,94615.00
2023-03-31T00:40:49.791Z,94609.00
2023-03-31T00:41:49.072Z,94609.00
2023-03-31T00:42:49.060Z,94603.00
2023-03-31T00:43:49.124Z,94601.00
2023-03-31T00:44:49.116Z,94601.00
2023-03-31T00:45:49.198Z,94605.00
2023-03-31T00:46:49.194Z,94609.00
2023-03-31T00:47:49.191Z,94605.00
2023-03-31T00:48:49.206Z,94603.00
2023-03-31T00:49:49.263Z,94605.00
2023-03-31T00:50:49.289Z,94601.00
2023-03-31T00:51:49.341Z,94599.00
2023-03-31T00:52:49.337Z,94597.00
2023-03-31T00:53:49.347Z,94595.00
2023-03-31T00:54:49.450Z,94591.00
2023-03-31T00:55:49.400Z,94587.00
2023-03-31T00:56:49.458Z,94587.00
2023-03-31T00:57:49.476Z,94585.00
2023-03-31T00:58:49.471Z,94583.00
2023-03-31T00:59:49.524Z,94583.00
2023-03-31T01:00:49.552Z,94583.00
2023-03-31T01:01:49.602Z,94583.00
2023-03-31T01:02:49.651Z,94579.00
2023-03-31T01:03:49.652Z,94578.00
2023-03-31T01:04:49.665Z,94579.00
2023-03-31T01:05:49.671Z,94583.00
2023-03-31T01:06:49.726Z,94581.00
2023-03-31T01:07:49.751Z,94579.00
2023-03-31T01:08:49.747Z,94578.00
2023-03-31T01:09:49.752Z,94574.00
2023-03-31T01:10:49.823Z,94576.00
2023-03-31T01:11:49.834Z,94574.00
2023-03-31T01:12:49.832Z,94572.00
2023-03-31T01:13:49.882Z,94570.00
2023-03-31T01:14:49.894Z,94566.00
2023-03-31T01:15:49.920Z,94564.00
2023-03-31T01:16:49.984Z,94558.00
2023-03-31T01:17:50.168Z,94556.00
2023-03-31T01:18:50.150Z,94554.00
2023-03-31T01:19:50.037Z,94554.00
2023-03-31T01:20:50.046Z,94548.00
2023-03-31T01:21:50.091Z,94550.00
2023-03-31T01:22:50.093Z,94548.00
2023-03-31T01:23:50.157Z,94548.00
2023-03-31T01:24:50.171Z,94548.00
2023-03-31T01:25:50.226Z,94544.00
2023-03-31T01:26:50.341Z,94544.00
2023-03-31T01:27:50.230Z,94546.00
2023-03-31T01:28:50.298Z,94544.00
2023-03-31T01:29:50.331Z,94542.00
2023-03-31T01:30:50.369Z,94544.00
2023-03-31T01:31:50.432Z,94550.00
2023-03-31T01:32:50.539Z,94550.00
2023-03-31T01:33:50.442Z,94548.00
2023-03-31T01:34:50.493Z,94550.00
2023-03-31T01:35:50.510Z,94548.00
2023-03-31T01:36:50.496Z,94546.00
2023-03-31T01:37:50.523Z,94542.00
2023-03-31T01:38:50.579Z,94539.00
2023-03-31T01:39:50.580Z,94535.00
2023-03-31T01:40:50.641Z,94533.00
2023-03-31T01:41:50.644Z,94531.00
2023-03-31T01:42:50.677Z,94533.00
2023-03-31T01:43:50.708Z,94529.00
2023-03-31T01:44:50.708Z,94529.00
2023-03-31T01:45:50.909Z,94529.00
2023-03-31T01:46:50.840Z,94529.00
2023-03-31T01:47:50.907Z,94533.00
2023-03-31T01:48:50.858Z,94523.00
2023-03-31T01:49:50.894Z,94519.00
2023-03-31T01:50:50.895Z,94517.00
2023-03-31T01:51:50.956Z,94519.00
2023-03-31T01:52:50.960Z,94519.00
2023-03-31T01:53:50.997Z,94517.00
2023-03-31T01:54:51.001Z,94515.00
2023-03-31T01:55:51.040Z,94519.00
2023-03-31T01:56:51.057Z,94517.00
2023-03-31T01:57:51.075Z,94519.00
2023-03-31T01:58:51.124Z,94517.00
2023-03-31T01:59:51.168Z,94513.00
2023-03-31T02:00:51.179Z,94515.00
2023-03-31T02:01:51.513Z,94513.00
2023-03-31T02:02:51.365Z,94513.00
2023-03-31T02:03:51.323Z,94511.00
2023-03-31T02:04:51.373Z,94513.00
2023-03-31T02:05:51.387Z,94513.00
2023-03-31T02:06:51.430Z,94513.00
2023-03-31T02:07:51.500Z,94511.00
2023-03-31T02:08:51.492Z,94511.00
2023-03-31T02:09:51.547Z,94507.00
2023-03-31T02:10:51.566Z,94505.00
2023-03-31T02:11:51.625Z,94505.00
2023-03-31T02:12:51.676Z,94505.00
2023-03-31T02:13:51.676Z,94503.00
2023-03-31T02:14:51.698Z,94501.00
2023-03-31T02:15:51.808Z,94499.00
2023-03-31T02:16:51.881Z,94497.00
2023-03-31T02:17:51.878Z,94495.00
2023-03-31T02:18:51.913Z,94495.00
2023-03-31T02:19:51.919Z,94493.00
2023-03-31T02:20:51.932Z,94489.00
2023-03-31T02:21:51.992Z,94489.00
2023-03-31T02:22:52.039Z,94487.00
2023-03-31T02:23:52.104Z,94487.00
2023-03-31T02:24:52.116Z,94485.00
2023-03-31T02:25:52.147Z,94484.00
2023-03-31T02:26:52.136Z,94482.00
2023-03-31T02:27:52.172Z,94478.00
2023-03-31T02:28:52.309Z,94474.00
2023-03-31T02:29:52.256Z,94470.00
2023-03-31T02:30:52.308Z,94470.00
2023-03-31T02:31:52.435Z,94468.00
2023-03-31T02:32:52.415Z,94466.00
2023-03-31T02:33:52.430Z,94466.00
2023-03-31T02:34:52.497Z,94468.00
2023-03-31T02:35:52.595Z,94470.00
2023-03-31T02:36:52.522Z,94470.00
2023-03-31T02:37:52.581Z,94466.00
2023-03-31T02:38:52.601Z,94464.00
2023-03-31T02:39:52.678Z,94464.00
2023-03-31T02:40:52.699Z,94466.00
2023-03-31T02:41:52.743Z,94462.00
2023-03-31T02:42:52.798Z,94462.00
2023-03-31T02:43:52.858Z,94460.00
2023-03-31T02:44:52.874Z,94466.00
2023-03-31T02:45:52.903Z,94460.00
2023-03-31T02:46:52.907Z,94466.00
2023-03-31T02:47:52.962Z,94466.00
2023-03-31T02:48:52.990Z,94468.00
2023-03-31T02:49:53.021Z,94468.00
2023-03-31T02:50:53.069Z,94472.00
2023-03-31T02:51:53.122Z,94474.00
2023-03-31T02:52:53.135Z,94474.00
2023-03-31T02:53:53.184Z,94470.00
2023-03-31T02:54:53.197Z,94470.00
2023-03-31T02:55:53.230Z,94470.00
2023-03-31T02:56:53.273Z,94470.00
2023-03-31T02:57:53.321Z,94466.00
2023-03-31T02:58:53.371Z,94462.00
2023-03-31T02:59:53.378Z,94460.00
2023-03-31T03:00:53.451Z,94456.00
2023-03-31T03:01:53.440Z,94450.00
2023-03-31T03:02:53.572Z,94444.00
2023-03-31T03:03:53.500Z,94435.00
2023-03-31T03:04:53.525Z,94429.00
2023-03-31T03:05:53.589Z,94425.00
2023-03-31T03:06:53.696Z,94421.00
2023-03-31T03:07:53.644Z,94419.00
2023-03-31T03:08:53.694Z,94421.00
2023-03-31T03:09:53.700Z,94425.00
2023-03-31T03:10:53.758Z,94425.00
2023-03-31T03:11:53.786Z,94427.00
2023-03-31T03:12:53.835Z,94421.00
2023-03-31T03:13:53.869Z,94421.00
2023-03-31T03:14:53.901Z,94421.00
2023-03-31T03:15:53.952Z,94423.00
2023-03-31T03:16:54.003Z,94425.00
2023-03-31T03:17:54.035Z,94423.00
2023-03-31T03:18:54.072Z,94423.00
2023-03-31T03:19:54.087Z,94425.00
2023-03-31T03:20:54.132Z,94425.00
2023-03-31T03:21:54.202Z,94425.00
2023-03-31T03:22:54.198Z,94425.00
2023-03-31T03:23:54.201Z,94425.00
2023-03-31T03:24:54.251Z,94423.00
2023-03-31T03:25:54.321Z,94421.00
2023-03-31T03:26:54.331Z,94417.00
2023-03-31T03:27:54.405Z,94415.00
2023-03-31T03:28:54.403Z,94407.00
2023-03-31T03:29:54.446Z,94399.00
2023-03-31T03:30:54.476Z,94397.00
2023-03-31T03:31:54.479Z,94391.00
2023-03-31T03:32:54.546Z,94391.00
2023-03-31T03:33:54.583Z,94391.00
2023-03-31T03:34:54.584Z,94388.00
2023-03-31T03:35:54.680Z,94374.00
2023-03-31T03:36:54.677Z,94372.00
2023-03-31T03:37:54.716Z,94364.00
2023-03-31T03:38:54.806Z,94354.00
2023-03-31T03:39:54.766Z,94356.00
2023-03-31T03:40:54.807Z,94358.00
2023-03-31T03:41:54.841Z,94364.00
2023-03-31T03:42:54.926Z,94368.00
2023-03-31T03:43:54.972Z,94372.00
2023-03-31T03:44:54.969Z,94370.00
2023-03-31T03:45:55.039Z,94368.00
2023-03-31T03:46:55.028Z,94364.00
2023-03-31T03:47:55.113Z,94360.00
2023-03-31T03:48:55.142Z,94356.00
2023-03-31T03:49:55.162Z,94352.00
2023-03-31T03:50:55.222Z,94350.00
2023-03-31T03:51:55.194Z,94345.00
2023-03-31T03:52:55.234Z,94337.00
2023-03-31T03:53:55.280Z,94333.00
2023-03-31T03:54:55.345Z,94335.00
2023-03-31T03:55:55.364Z,94335.00
2023-03-31T03:56:55.455Z,94335.00
2023-03-31T03:57:55.453Z,94337.00
2023-03-31T03:58:55.451Z,94339.00
2023-03-31T03:59:55.505Z,94337.00
2023-03-31T04:00:55.533Z,94335.00
2023-03-31T04:01:55.592Z,94352.00
2023-03-31T04:02:55.700Z,94350.00
2023-03-31T04:03:55.650Z,94350.00
2023-03-31T04:04:55.833Z,94348.00
2023-03-31T04:05:55.763Z,94346.00
2023-03-31T04:06:55.805Z,94343.00
2023-03-31T04:07:55.891Z,94343.00
2023-03-31T04:08:55.907Z,94339.00
2023-03-31T04:09:55.961Z,94339.00
2023-03-31T04:10:56.035Z,94339.00
2023-03-31T04:11:56.062Z,94343.00
2023-03-31T04:12:56.115Z,94343.00
2023-03-31T04:13:56.156Z,94341.00
2023-03-31T04:14:56.274Z,94341.00
2023-03-31T04:15:56.319Z,94339.00
2023-03-31T04:16:56.532Z,94339.00
2023-03-31T04:17:56.362Z,94335.00
2023-03-31T04:18:56.422Z,94335.00
2023-03-31T04:19:56.534Z,94335.00
2023-03-31T04:20:56.575Z,94341.00
2023-03-31T04:21:56.619Z,94335.00
2023-03-31T04:22:56.659Z,94337.00
2023-03-31T04:23:56.742Z,94337.00
2023-03-31T04:24:56.819Z,94337.00
2023-03-31T04:25:56.877Z,94341.00
2023-03-31T04:26:56.923Z,94341.00
2023-03-31T04:27:56.971Z,94337.00
2023-03-31T04:28:57.040Z,94335.00
2023-03-31T04:29:57.113Z,94335.00
2023-03-31T04:30:57.166Z,94321.00
2023-03-31T04:31:57.313Z,94321.00
2023-03-31T04:32:57.336Z,94323.00
2023-03-31T04:33:57.350Z,94317.00
2023-03-31T04:34:57.402Z,94321.00
2023-03-31T04:35:57.481Z,94321.00
2023-03-31T04:36:57.516Z,94319.00
2023-03-31T04:37:57.551Z,94315.00
2023-03-31T04:38:57.628Z,94311.00
2023-03-31T04:39:57.627Z,94311.00
2023-03-31T04:40:57.692Z,94305.00
2023-03-31T04:41:57.754Z,94313.00
2023-03-31T04:42:57.810Z,94311.00
2023-03-31T04:43:57.874Z,94309.00
2023-03-31T04:44:57.858Z,94307.00
2023-03-31T04:45:59.050Z,94309.00
2023-03-31T04:46:57.978Z,94309.00
2023-03-31T04:47:58.062Z,94305.00
2023-03-31T04:48:58.052Z,94303.00
2023-03-31T04:49:58.101Z,94299.00
2023-03-31T04:50:58.147Z,94298.00
2023-03-31T04:51:58.186Z,94298.00
2023-03-31T04:52:58.231Z,94294.00
2023-03-31T04:53:58.295Z,94284.00
2023-03-31T04:54:58.350Z,94239.00
2023-03-31T04:55:58.386Z,94235.00
2023-03-31T04:56:58.481Z,94244.00
2023-03-31T04:57:58.514Z,94246.00
2023-03-31T04:58:58.538Z,94244.00
2023-03-31T04:59:58.591Z,94235.00
2023-03-31T05:00:58.649Z,94221.00
2023-03-31T05:01:58.694Z,94215.00
2023-03-31T05:02:58.777Z,94217.00
2023-03-31T05:03:58.832Z,94219.00
2023-03-31T05:04:58.849Z,94223.00
2023-03-31T05:05:58.938Z,94221.00
2023-03-31T05:06:59.057Z,94223.00
2023-03-31T05:07:59.015Z,94221.00
2023-03-31T05:08:59.098Z,94217.00
2023-03-31T05:09:59.132Z,94217.00
2023-03-31T05:10:59.199Z,94219.00
2023-03-31T05:11:59.295Z,94219.00
2023-03-31T05:12:59.320Z,94211.00
2023-03-31T05:13:59.346Z,94207.00
2023-03-31T05:14:59.412Z,94207.00
2023-03-31T05:15:59.479Z,94205.00
2023-03-31T05:16:59.693Z,94205.00
2023-03-31T05:17:59.590Z,94201.00
2023-03-31T05:18:59.644Z,94197.00
2023-03-31T05:19:59.710Z,94194.00
2023-03-31T05:20:59.764Z,94192.00
2023-03-31T05:21:59.805Z,94186.00
2023-03-31T05:22:59.849Z,94184.00
2023-03-31T05:24:00.017Z,94186.00
2023-03-31T05:24:59.961Z,94186.00
2023-03-31T05:26:00.037Z,94184.00
2023-03-31T05:27:00.129Z,94184.00
2023-03-31T05:28:00.210Z,94180.00
2023-03-31T05:29:00.192Z,94174.00
2023-03-31T05:30:00.286Z,94170.00
2023-03-31T05:31:00.342Z,94199.00
2023-03-31T05:32:00.378Z,94203.00
2023-03-31T05:33:00.561Z,94205.00
2023-03-31T05:34:00.509Z,94199.00
2023-03-31T05:35:00.545Z,94196.00
2023-03-31T05:36:00.676Z,94197.00
2023-03-31T05:37:00.691Z,94201.00
2023-03-31T05:38:00.719Z,94201.00
2023-03-31T05:39:00.775Z,94192.00
2023-03-31T05:40:00.809Z,94188.00
2023-03-31T05:41:00.881Z,94182.00
2023-03-31T05:42:00.858Z,94174.00
2023-03-31T05:43:00.886Z,94168.00
2023-03-31T05:44:00.910Z,94168.00
2023-03-31T05:45:00.902Z,94170.00
2023-03-31T05:46:00.941Z,94164.00
2023-03-31T05:47:01.042Z,94164.00
2023-03-31T05:48:00.973Z,94172.00
2023-03-31T05:49:00.927Z,94178.00
2023-03-31T05:50:01.003Z,94180.00
2023-03-31T05:51:00.960Z,94180.00
2023-03-31T05:52:00.993Z,94172.00
2023-03-31T05:53:01.007Z,94172.00
2023-03-31T05:54:01.076Z,94164.00
2023-03-31T05:55:01.075Z,94158.00
2023-03-31T05:56:01.137Z,94158.00
2023-03-31T05:57:01.170Z,94156.00
2023-03-31T05:58:01.193Z,94156.00
2023-03-31T05:59:01.207Z,94152.00
2023-03-31T06:00:01.230Z,94150.00
2023-03-31T06:01:01.266Z,94152.00
2023-03-31T06:02:01.321Z,94158.00
2023-03-31T06:03:01.363Z,94158.00
2023-03-31T06:04:01.378Z,94158.00
2023-03-31T06:05:01.364Z,94162.00
2023-03-31T06:06:01.390Z,94164.00
2023-03-31T06:07:01.452Z,94164.00
2023-03-31T06:08:01.472Z,94156.00
2023-03-31T06:09:01.587Z,94147.00
2023-03-31T06:10:01.588Z,94135.00
2023-03-31T06:11:01.652Z,94135.00
2023-03-31T06:12:01.666Z,94145.00
2023-03-31T06:14:21.306Z,94147.00
2023-03-31T06:15:21.324Z,94141.00
2023-03-31T06:16:20.862Z,94133.00
2023-03-31T06:17:21.396Z,94119.00
2023-03-31T06:18:20.845Z,94119.00
2023-03-31T06:19:20.956Z,94115.00
2023-03-31T06:20:28.269Z,94113.00
2023-03-31T06:21:21.900Z,94109.00
2023-03-31T06:22:20.921Z,94117.00
2023-03-31T06:23:21.335Z,94113.00
2023-03-31T06:24:21.325Z,94113.00
2023-03-31T06:25:20.901Z,94105.00
2023-03-31T06:26:20.896Z,94105.00
2023-03-31T06:27:20.905Z,94102.00
2023-03-31T06:28:20.873Z,94102.00
2023-03-31T06:29:20.863Z,94105.00
2023-03-31T06:30:21.331Z,94105.00
2023-03-31T06:31:20.849Z,94102.00
2023-03-31T06:32:20.927Z,94100.00
2023-03-31T06:33:20.787Z,94094.00
2023-03-31T06:34:21.553Z,94090.00
2023-03-31T06:35:21.293Z,94092.00
2023-03-31T06:36:20.876Z,94090.00
2023-03-31T06:37:21.331Z,94086.00
2023-03-31T06:38:21.036Z,94080.00
2023-03-31T06:39:21.103Z,94082.00
2023-03-31T06:40:21.081Z,94084.00
2023-03-31T06:41:21.238Z,94084.00
2023-03-31T06:42:21.103Z,94080.00
2023-03-31T06:43:21.140Z,94074.00
2023-03-31T06:44:21.185Z,94074.00
2023-03-31T06:45:21.228Z,94080.00
2023-03-31T06:46:21.183Z,94084.00
2023-03-31T06:47:21.242Z,94082.00
2023-03-31T06:48:21.169Z,94072.00
2023-03-31T06:49:21.197Z,94072.00
2023-03-31T06:50:21.230Z,94084.00
2023-03-31T06:51:21.804Z,94092.00
2023-03-31T06:52:21.273Z,94098.00
2023-03-31T06:53:21.325Z,94098.00
2023-03-31T06:54:21.321Z,94100.00
2023-03-31T06:55:21.387Z,94098.00
2023-03-31T06:56:21.407Z,94100.00
2023-03-31T06:57:21.445Z,94102.00
2023-03-31T06:58:21.451Z,94098.00
2023-03-31T06:59:21.529Z,94096.00
2023-03-31T07:00:23.148Z,94100.00
2023-03-31T07:01:21.660Z,94105.00
2023-03-31T07:02:21.684Z,94109.00
2023-03-31T07:03:21.793Z,94100.00
2023-03-31T07:04:21.690Z,94086.00
2023-03-31T07:05:22.246Z,94098.00
2023-03-31T07:06:21.714Z,94094.00
2023-03-31T07:07:21.894Z,94104.00
2023-03-31T07:08:21.835Z,94100.00
2023-03-31T07:09:21.819Z,94084.00
2023-03-31T07:10:21.911Z,94066.00
2023-03-31T07:11:21.939Z,94068.00
2023-03-31T07:12:21.992Z,94068.00
2023-03-31T07:13:22.049Z,94064.00
2023-03-31T07:14:22.132Z,94053.00
2023-03-31T07:15:22.146Z,94049.00
2023-03-31T07:16:22.179Z,94055.00
2023-03-31T07:17:22.183Z,94051.00
2023-03-31T07:18:22.182Z,94055.00
2023-03-31T07:19:22.191Z,94062.00
2023-03-31T07:20:22.275Z,94062.00
2023-03-31T07:21:22.306Z,94060.00
2023-03-31T07:22:22.395Z,94055.00
2023-03-31T07:23:23.032Z,94053.00
2023-03-31T07:24:22.454Z,94047.00
2023-03-31T07:25:22.512Z,94051.00
2023-03-31T07:26:22.584Z,94051.00
2023-03-31T07:27:25.601Z,94043.00
2023-03-31T07:28:22.647Z,94045.00
2023-03-31T07:29:22.857Z,94045.00
2023-03-31T07:30:22.590Z,94033.00
2023-03-31T07:31:22.652Z,94035.00
2023-03-31T07:32:22.714Z,94039.00
2023-03-31T07:33:22.583Z,94033.00
2023-03-31T07:34:22.805Z,94031.00
2023-03-31T07:35:22.850Z,94029.00
2023-03-31T07:36:22.552Z,94031.00
2023-03-31T07:37:22.530Z,94027.00
2023-03-31T07:38:22.542Z,94027.00
2023-03-31T07:39:22.547Z,94023.00
2023-03-31T07:40:22.545Z,94013.00
2023-03-31T07:41:22.531Z,94006.00
2023-03-31T07:42:22.549Z,94004.00
2023-03-31T07:43:22.489Z,94002.00
2023-03-31T07:44:22.464Z,94002.00
2023-03-31T07:46:41.823Z,93994.00
2023-03-31T07:47:41.593Z,93992.00
2023-03-31T07:48:41.556Z,93996.00
2023-03-31T07:49:41.526Z,93988.00
2023-03-31T07:50:41.617Z,93984.00
2023-03-31T07:51:41.642Z,93980.00
2023-03-31T07:52:42.987Z,93976.00
2023-03-31T07:53:41.774Z,93976.00
2023-03-31T07:54:41.819Z,93972.00
2023-03-31T07:55:41.902Z,93972.00
2023-03-31T07:56:41.940Z,93968.00
2023-03-31T07:57:42.093Z,93962.00
2023-03-31T07:58:42.033Z,93980.00
2023-03-31T07:59:42.043Z,93978.00
2023-03-31T08:00:42.102Z,93956.00
2023-03-31T08:01:42.153Z,93945.00
2023-03-31T08:02:42.213Z,93964.00
2023-03-31T08:03:42.293Z,93968.00
2023-03-31T08:04:42.256Z,93968.00
2023-03-31T08:05:42.323Z,93976.00
2023-03-31T08:06:42.275Z,93984.00
2023-03-31T08:07:42.298Z,93982.00
2023-03-31T08:08:42.360Z,93984.00
2023-03-31T08:09:42.593Z,93982.00
2023-03-31T08:10:42.330Z,93964.00
2023-03-31T08:11:42.345Z,93964.00
2023-03-31T08:12:42.346Z,93980.00
2023-03-31T08:13:42.350Z,93974.00
2023-03-31T08:14:42.633Z,93966.00
2023-03-31T08:15:42.386Z,93955.00
2023-03-31T08:16:42.560Z,93955.00
2023-03-31T08:17:42.438Z,93966.00
2023-03-31T08:18:42.424Z,93956.00
2023-03-31T08:19:42.450Z,93953.00
2023-03-31T08:20:42.558Z,93955.00
2023-03-31T08:21:42.575Z,93953.00
2023-03-31T08:22:42.649Z,93955.00
2023-03-31T08:23:42.700Z,93935.00
2023-03-31T08:24:42.770Z,93933.00
2023-03-31T08:25:42.831Z,93931.00
2023-03-31T08:26:42.944Z,93929.00
2023-03-31T08:27:42.902Z,93931.00
2023-03-31T08:28:43.110Z,93943.00
2023-03-31T08:29:43.035Z,93943.00
2023-03-31T08:30:43.015Z,93933.00
2023-03-31T08:31:43.086Z,93929.00
2023-03-31T08:32:43.119Z,93931.00
2023-03-31T08:33:43.079Z,93939.00
2023-03-31T08:34:43.073Z,93939.00
2023-03-31T08:35:43.177Z,93929.00
2023-03-31T08:36:43.160Z,93915.00
2023-03-31T08:37:43.176Z,93915.00
2023-03-31T08:38:43.166Z,93909.00
2023-03-31T08:39:43.178Z,93909.00
2023-03-31T08:40:43.181Z,93908.00
2023-03-31T08:41:43.194Z,93902.00
2023-03-31T08:42:43.196Z,93896.00
2023-03-31T08:43:43.208Z,93892.00
2023-03-31T08:44:43.205Z,93894.00
2023-03-31T08:45:43.273Z,93902.00
2023-03-31T08:46:43.242Z,93902.00
2023-03-31T08:47:43.232Z,93898.00
2023-03-31T08:48:43.232Z,93890.00
2023-03-31T08:49:43.235Z,93898.00
2023-03-31T08:50:43.219Z,93894.00
2023-03-31T08:51:43.260Z,93892.00
2023-03-31T08:52:43.234Z,93896.00
2023-03-31T08:53:43.303Z,93888.00
2023-03-31T08:54:43.289Z,93886.00
2023-03-31T08:55:43.298Z,93876.00
2023-03-31T08:56:43.309Z,93886.00
2023-03-31T08:57:45.462Z,93880.00
2023-03-31T08:58:43.324Z,93874.00
2023-03-31T08:59:43.361Z,93861.00
2023-03-31T09:00:43.393Z,93853.00
2023-03-31T09:01:54.488Z,93845.00
2023-03-31T09:02:44.593Z,93839.00
2023-03-31T09:03:43.466Z,93839.00
2023-03-31T09:04:43.652Z,93833.00
2023-03-31T09:05:56.832Z,93831.00
2023-03-31T09:06:44.325Z,93839.00
2023-03-31T09:07:43.294Z,93837.00
2023-03-31T09:08:43.331Z,93835.00
2023-03-31T09:09:43.327Z,93839.00
2023-03-31T09:10:43.305Z,93831.00
2023-03-31T09:11:43.316Z,93827.00
2023-03-31T09:12:43.309Z,93825.00
2023-03-31T09:13:43.279Z,93825.00
2023-03-31T09:14:43.311Z,93825.00
2023-03-31T09:15:43.255Z,93819.00
2023-03-31T09:16:43.393Z,93821.00
2023-03-31T09:17:43.302Z,93825.00
2023-03-31T09:18:43.247Z,93825.00
2023-03-31T09:19:43.266Z,93819.00
2023-03-31T09:20:43.270Z,93814.00
2023-03-31T09:21:43.487Z,93816.00
2023-03-31T09:22:43.241Z,93816.00
2023-03-31T09:23:43.227Z,93812.00
2023-03-31T09:24:43.216Z,93810.00
2023-03-31T09:25:43.222Z,93808.00
2023-03-31T09:26:43.268Z,93802.00
2023-03-31T09:27:43.249Z,93796.00
2023-03-31T09:28:43.286Z,93788.00
2023-03-31T09:29:43.639Z,93782.00
2023-03-31T09:30:43.290Z,93770.00
2023-03-31T09:31:43.681Z,93769.00
2023-03-31T09:32:43.386Z,93765.00
2023-03-31T09:33:43.339Z,93770.00
2023-03-31T09:34:43.630Z,93769.00
2023-03-31T09:35:45.885Z,93770.00
2023-03-31T09:36:43.335Z,93792.00
2023-03-31T09:37:43.377Z,93794.00
2023-03-31T09:38:43.430Z,93804.00
2023-03-31T09:39:43.331Z,93812.00
2023-03-31T09:40:43.312Z,93810.00
2023-03-31T09:41:43.288Z,93804.00
2023-03-31T09:42:43.326Z,93802.00
2023-03-31T09:43:43.275Z,93765.00
2023-03-31T09:44:43.321Z,93792.00
2023-03-31T09:45:44.163Z,93770.00
2023-03-31T09:46:43.323Z,93778.00
2023-03-31T09:47:43.341Z,93786.00
2023-03-31T09:48:43.255Z,93796.00
2023-03-31T09:49:43.268Z,93790.00
2023-03-31T09:50:44.670Z,93776.00
2023-03-31T09:51:43.224Z,93784.00
2023-03-31T09:52:43.271Z,93784.00
2023-03-31T09:53:43.213Z,93784.00
2023-03-31T09:54:43.645Z,93780.00
2023-03-31T09:55:43.284Z,93776.00
2023-03-31T09:56:43.335Z,93772.00
2023-03-31T09:57:43.194Z,93774.00
2023-03-31T09:58:43.203Z,93770.00
2023-03-31T09:59:43.639Z,93780.00
2023-03-31T10:00:43.228Z,93780.00
2023-03-31T10:01:43.303Z,93778.00
2023-03-31T10:02:43.299Z,93769.00
2023-03-31T10:03:43.324Z,93769.00
2023-03-31T10:04:43.352Z,93770.00
2023-03-31T10:05:43.420Z,93770.00
2023-03-31T10:06:43.421Z,93770.00
2023-03-31T10:07:43.474Z,93770.00
2023-03-31T10:08:43.548Z,93765.00
2023-03-31T10:09:58.135Z,93755.00
2023-03-31T10:10:43.776Z,93767.00
2023-03-31T10:11:43.775Z,93778.00
2023-03-31T10:12:43.787Z,93780.00
2023-03-31T10:13:44.179Z,93782.00
2023-03-31T10:14:43.808Z,93796.00
2023-03-31T10:15:43.818Z,93780.00
2023-03-31T10:16:44.174Z,93794.00
2023-03-31T10:17:54.452Z,93792.00
2023-03-31T10:18:44.947Z,93798.00
2023-03-31T10:19:43.867Z,93790.00
2023-03-31T10:20:43.866Z,93788.00
2023-03-31T10:21:43.852Z,93774.00
2023-03-31T10:22:43.885Z,93782.00
2023-03-31T10:23:44.173Z,93786.00
2023-03-31T10:24:43.905Z,93772.00
2023-03-31T10:25:43.840Z,93784.00
2023-03-31T10:26:50.641Z,93774.00
2023-03-31T10:27:43.828Z,93770.00
2023-03-31T10:28:44.184Z,93778.00
2023-03-31T10:29:43.811Z,93767.00
2023-03-31T10:30:43.856Z,93772.00
2023-03-31T10:31:43.824Z,93769.00
2023-03-31T10:32:43.837Z,93780.00
2023-03-31T10:33:44.218Z,93782.00
2023-03-31T10:34:43.769Z,93770.00
2023-03-31T10:35:43.901Z,93761.00
2023-03-31T10:36:43.747Z,93753.00
2023-03-31T10:37:43.751Z,93769.00
2023-03-31T10:38:44.208Z,93755.00
2023-03-31T10:39:43.737Z,93743.00
2023-03-31T10:40:43.769Z,93747.00
2023-03-31T10:41:43.727Z,93751.00
2023-03-31T10:42:43.705Z,93753.00
2023-03-31T10:43:43.723Z,93757.00
2023-03-31T10:44:43.722Z,93761.00
2023-03-31T10:45:43.705Z,93753.00
2023-03-31T10:46:43.695Z,93741.00
2023-03-31T10:47:43.732Z,93739.00
2023-03-31T10:48:44.165Z,93735.00
2023-03-31T10:49:51.133Z,93718.00
2023-03-31T10:50:43.684Z,93723.00
2023-03-31T10:51:43.681Z,93725.00
2023-03-31T10:52:43.691Z,93718.00
2023-03-31T10:53:43.620Z,93714.00
2023-03-31T10:54:43.660Z,93710.00
2023-03-31T10:55:43.656Z,93727.00
2023-03-31T10:56:43.806Z,93722.00
2023-03-31T10:57:43.700Z,93710.00
2023-03-31T10:58:51.884Z,93716.00
2023-03-31T10:59:44.630Z,93720.00
2023-03-31T11:00:43.652Z,93718.00
2023-03-31T11:01:43.585Z,93725.00
2023-03-31T11:02:43.685Z,93741.00
2023-03-31T11:03:43.714Z,93729.00
2023-03-31T11:04:46.023Z,93720.00
2023-03-31T11:05:43.706Z,93702.00
2023-03-31T11:06:43.734Z,93692.00
2023-03-31T11:07:43.794Z,93716.00
2023-03-31T11:08:43.826Z,93718.00
2023-03-31T11:09:43.895Z,93720.00
2023-03-31T11:10:43.909Z,93725.00
2023-03-31T11:11:43.949Z,93723.00
2023-03-31T11:12:44.049Z,93712.00
2023-03-31T11:13:44.144Z,93741.00
2023-03-31T11:14:44.187Z,93761.00
2023-03-31T11:15:44.770Z,93757.00
2023-03-31T11:16:44.461Z,93739.00
2023-03-31T11:17:44.338Z,93741.00
2023-03-31T11:18:44.403Z,93737.00
2023-03-31T11:19:44.416Z,93729.00
2023-03-31T11:20:44.694Z,93722.00
2023-03-31T11:21:44.555Z,93722.00
2023-03-31T11:22:44.571Z,93731.00
2023-03-31T11:23:44.674Z,93735.00
2023-03-31T11:24:44.729Z,93731.00
2023-03-31T11:25:45.187Z,93737.00
2023-03-31T11:26:44.784Z,93745.00
2023-03-31T11:27:44.974Z,93743.00
2023-03-31T11:28:44.912Z,93741.00
2023-03-31T11:29:44.884Z,93737.00
2023-03-31T11:30:44.963Z,93739.00
2023-03-31T11:31:45.005Z,93735.00
2023-03-31T11:32:45.053Z,93737.00
2023-03-31T11:33:44.984Z,93733.00
2023-03-31T11:34:44.945Z,93729.00
2023-03-31T11:35:45.038Z,93731.00
2023-03-31T11:36:45.010Z,93735.00
2023-03-31T11:37:45.113Z,93741.00
2023-03-31T11:38:45.080Z,93741.00
2023-03-31T11:39:45.086Z,93737.00
2023-03-31T11:40:45.086Z,93749.00
2023-03-31T11:41:45.140Z,93753.00
2023-03-31T11:42:45.117Z,93755.00
2023-03-31T11:43:45.160Z,93745.00
2023-03-31T11:44:45.169Z,93745.00
2023-03-31T11:45:45.193Z,93745.00
2023-03-31T11:46:45.226Z,93747.00
2023-03-31T11:47:45.211Z,93747.00